Time;durP1;ratioP1;P1;durP2;ratioP2;P2;SDS_P1;SDS_P2;PMS_P1;PMS_P2;Temp;Humidity;BMP_temperature;BMP_pressure;BME280_temperature;BME280_humidity;BME280_pressure;Samples;Min_cycle;Max_cycle;Signal;HPM_P1;HPM_P2
2023/03/31 00:00:36;;;;;;;;;;;10.80;99.90;;;;;;8398736;28;19924;-69
2023/03/31 00:04:44;;;;;;;;;;;10.80;99.90;;;;;;8387309;28;20414;-69
2023/03/31 00:08:50;;;;;;;;;;;10.90;99.90;;;;;;8384363;28;19968;-69
2023/03/31 00:12:53;;;;;;;;;;;10.90;99.90;;;;;;8384887;28;20273;-69
2023/03/31 00:32:05;;;;;;;;;;;10.90;99.90;;;;;;8383821;28;19928;-70
2023/03/31 00:36:07;;;;;;;;;;;10.90;99.90;;;;;;8370418;28;19939;-69
2023/03/31 00:40:09;;;;;;;;;;;11.00;99.90;;;;;;8393582;28;19932;-69
2023/03/31 00:44:21;;;;;;;;;;;11.00;99.90;;;;;;8404410;28;20494;-69
2023/03/31 00:48:23;;;;;;;;;;;11.00;99.90;;;;;;8407548;28;19969;-70
2023/03/31 00:52:36;;;;;;;;;;;11.10;99.90;;;;;;8391911;28;19928;-70
2023/03/31 00:56:39;;;;;;;;;;;11.10;99.90;;;;;;8396900;28;19932;-70
2023/03/31 01:00:41;;;;;;;;;;;11.10;99.90;;;;;;8386831;28;19967;-69
2023/03/31 01:04:45;;;;;;;;;;;11.20;99.90;;;;;;8388297;28;20391;-70
2023/03/31 01:08:47;;;;;;;;;;;11.10;99.90;;;;;;8379144;28;19924;-70
2023/03/31 01:12:51;;;;;;;;;;;11.10;99.90;;;;;;8392180;28;19925;-69
2023/03/31 01:16:53;;;;;;;;;;;11.00;99.90;;;;;;8386546;28;19928;-69
2023/03/31 01:20:55;;;;;;;;;;;11.00;99.90;;;;;;8398892;28;19931;-70
2023/03/31 01:25:04;;;;;;;;;;;11.00;99.90;;;;;;8392606;28;19928;-70
2023/03/31 01:29:18;;;;;;;;;;;10.90;99.90;;;;;;8382648;28;19972;-69
2023/03/31 01:33:25;;;;;;;;;;;10.90;99.90;;;;;;8391672;28;19924;-69
2023/03/31 01:37:27;;;;;;;;;;;10.90;99.90;;;;;;8375415;28;19964;-69
2023/03/31 01:41:31;;;;;;;;;;;10.80;99.90;;;;;;8394585;28;20388;-69
2023/03/31 01:45:33;;;;;;;;;;;10.90;99.90;;;;;;8379260;28;20014;-69
2023/03/31 01:49:58;;;;;;;;;;;10.80;99.90;;;;;;8387865;28;19924;-69
2023/03/31 01:54:00;;;;;;;;;;;10.90;99.90;;;;;;8370498;28;19924;-70
2023/03/31 01:58:23;;;;;;;;;;;10.90;99.90;;;;;;8390856;28;19954;-69
2023/03/31 02:02:26;;;;;;;;;;;10.90;99.90;;;;;;8386782;28;19928;-69
2023/03/31 02:06:33;;;;;;;;;;;10.90;99.90;;;;;;8400503;28;19924;-69
2023/03/31 02:10:35;;;;;;;;;;;10.90;99.90;;;;;;8386364;28;20042;-69
2023/03/31 02:14:39;;;;;;;;;;;10.90;99.90;;;;;;8393573;28;19929;-69
2023/03/31 02:18:42;;;;;;;;;;;11.00;99.90;;;;;;8369013;28;20415;-69
2023/03/31 02:22:47;;;;;;;;;;;11.00;99.90;;;;;;8364032;28;19924;-69
2023/03/31 02:27:07;;;;;;;;;;;11.00;99.90;;;;;;8385351;28;19967;-69
2023/03/31 02:31:12;;;;;;;;;;;11.00;99.90;;;;;;8397215;28;19995;-69
2023/03/31 02:35:17;;;;;;;;;;;11.00;99.90;;;;;;8381716;28;19956;-69
2023/03/31 02:39:22;;;;;;;;;;;11.00;99.90;;;;;;8381097;28;20430;-69
2023/03/31 02:43:24;;;;;;;;;;;11.00;99.90;;;;;;8368417;28;20023;-70
2023/03/31 02:47:26;;;;;;;;;;;11.00;99.90;;;;;;8378159;28;20514;-70
2023/03/31 02:51:27;;;;;;;;;;;10.90;99.90;;;;;;8394823;28;19977;-70
2023/03/31 02:55:49;;;;;;;;;;;10.90;99.90;;;;;;8369203;28;20295;-69
2023/03/31 02:59:54;;;;;;;;;;;10.80;99.90;;;;;;8375037;28;19947;-70
2023/03/31 03:04:11;;;;;;;;;;;10.80;99.90;;;;;;8383012;28;19967;-69
2023/03/31 03:08:42;;;;;;;;;;;10.80;99.90;;;;;;8385947;28;20291;-69
2023/03/31 03:13:02;;;;;;;;;;;10.80;99.90;;;;;;8339095;28;19930;-70
2023/03/31 03:17:24;;;;;;;;;;;10.80;99.90;;;;;;8392062;28;19976;-69
2023/03/31 03:21:26;;;;;;;;;;;10.80;99.90;;;;;;8390295;28;19929;-69
2023/03/31 03:25:29;;;;;;;;;;;10.70;99.90;;;;;;8367459;28;19972;-70
2023/03/31 03:29:30;;;;;;;;;;;10.80;99.90;;;;;;8384946;28;19929;-70
2023/03/31 03:33:32;;;;;;;;;;;10.80;99.90;;;;;;8372984;28;19929;-70
2023/03/31 03:37:34;;;;;;;;;;;10.80;99.90;;;;;;8390180;28;19935;-70
2023/03/31 03:41:35;;;;;;;;;;;10.70;99.90;;;;;;8397363;28;20387;-70
2023/03/31 03:45:37;;;;;;;;;;;10.70;99.90;;;;;;8372015;28;20272;-70
2023/03/31 03:49:39;;;;;;;;;;;10.70;99.90;;;;;;8387251;28;20424;-70
2023/03/31 03:53:41;;;;;;;;;;;10.70;99.90;;;;;;8401130;28;20024;-70
2023/03/31 03:57:42;;;;;;;;;;;10.70;99.90;;;;;;8401039;28;19931;-70
2023/03/31 04:01:44;;;;;;;;;;;10.60;99.90;;;;;;8399415;28;19932;-70
2023/03/31 04:05:48;;;;;;;;;;;10.60;99.90;;;;;;8385610;28;19924;-69
2023/03/31 04:09:50;;;;;;;;;;;10.60;99.90;;;;;;8381980;28;19951;-69
2023/03/31 04:13:52;;;;;;;;;;;10.50;99.90;;;;;;8392171;28;20550;-69
2023/03/31 04:17:53;;;;;;;;;;;10.50;99.90;;;;;;8385766;28;19924;-70
2023/03/31 04:21:57;;;;;;;;;;;10.40;99.90;;;;;;8370582;28;20015;-70
2023/03/31 04:25:59;;;;;;;;;;;10.50;99.90;;;;;;8382780;28;19977;-70
2023/03/31 04:30:01;;;;;;;;;;;10.50;99.90;;;;;;8393398;28;19951;-69
2023/03/31 04:34:05;;;;;;;;;;;10.50;99.90;;;;;;8382932;28;21667;-70
2023/03/31 04:38:07;;;;;;;;;;;10.50;99.90;;;;;;8389280;28;19931;-69
2023/03/31 04:42:09;;;;;;;;;;;10.50;99.90;;;;;;8391796;28;19924;-70
2023/03/31 04:46:11;;;;;;;;;;;10.50;99.90;;;;;;8382946;28;20678;-69
2023/03/31 04:50:12;;;;;;;;;;;10.50;99.90;;;;;;8379799;28;19924;-69
2023/03/31 04:54:17;;;;;;;;;;;10.50;99.90;;;;;;8368224;28;19925;-69
2023/03/31 04:58:19;;;;;;;;;;;10.50;99.90;;;;;;8395235;28;20041;-70
2023/03/31 05:02:22;;;;;;;;;;;10.50;99.90;;;;;;8374815;28;19933;-70
2023/03/31 05:06:25;;;;;;;;;;;10.50;99.90;;;;;;8383827;28;19934;-69
2023/03/31 05:10:28;;;;;;;;;;;10.50;99.90;;;;;;8374741;28;20376;-69
2023/03/31 05:14:29;;;;;;;;;;;10.50;99.90;;;;;;8368384;28;19924;-69
2023/03/31 05:18:31;;;;;;;;;;;10.50;99.90;;;;;;8395335;28;19931;-69
2023/03/31 05:22:36;;;;;;;;;;;10.50;99.90;;;;;;8406342;28;19957;-70
2023/03/31 05:26:39;;;;;;;;;;;10.50;99.90;;;;;;8384756;28;19924;-69
2023/03/31 05:30:41;;;;;;;;;;;10.50;99.90;;;;;;8398427;28;19935;-69
2023/03/31 05:34:43;;;;;;;;;;;10.50;99.90;;;;;;8381959;28;19934;-69
2023/03/31 05:38:46;;;;;;;;;;;10.50;99.90;;;;;;8400211;28;20204;-69
2023/03/31 05:42:48;;;;;;;;;;;10.50;99.90;;;;;;8371652;28;19936;-70
2023/03/31 05:46:49;;;;;;;;;;;10.50;99.90;;;;;;8403743;28;19946;-70
2023/03/31 05:50:54;;;;;;;;;;;10.50;99.90;;;;;;8393281;28;20615;-69
2023/03/31 05:54:56;;;;;;;;;;;10.60;99.90;;;;;;8383708;28;20351;-69
2023/03/31 05:58:58;;;;;;;;;;;10.60;99.90;;;;;;8373971;28;19966;-70
2023/03/31 06:03:00;;;;;;;;;;;10.60;99.90;;;;;;8400437;28;19931;-69
2023/03/31 06:07:04;;;;;;;;;;;10.60;99.90;;;;;;8386861;28;20063;-69
2023/03/31 06:11:10;;;;;;;;;;;10.60;99.90;;;;;;8387103;28;20395;-69
2023/03/31 06:15:12;;;;;;;;;;;10.60;99.90;;;;;;8393414;28;19939;-69
2023/03/31 06:19:13;;;;;;;;;;;10.60;99.90;;;;;;8391753;28;20015;-69
2023/03/31 06:23:15;;;;;;;;;;;10.70;99.90;;;;;;8383497;28;19924;-69
2023/03/31 06:27:16;;;;;;;;;;;10.70;99.90;;;;;;8370917;28;19931;-69
2023/03/31 06:31:19;;;;;;;;;;;10.70;99.90;;;;;;8377083;28;19946;-69
2023/03/31 06:35:21;;;;;;;;;;;10.70;99.90;;;;;;8372511;28;19924;-69
2023/03/31 06:39:23;;;;;;;;;;;10.80;99.90;;;;;;8390094;28;19924;-69
2023/03/31 06:43:27;;;;;;;;;;;10.70;99.90;;;;;;8367566;28;20363;-69
2023/03/31 06:47:29;;;;;;;;;;;10.80;99.90;;;;;;8373320;28;19932;-69
2023/03/31 06:51:30;;;;;;;;;;;10.70;99.90;;;;;;8375442;28;19931;-69
2023/03/31 06:55:33;;;;;;;;;;;10.70;99.90;;;;;;8384891;28;19970;-69
2023/03/31 06:59:35;;;;;;;;;;;10.70;99.90;;;;;;8390330;28;19924;-69
2023/03/31 07:03:37;;;;;;;;;;;10.70;99.90;;;;;;8386656;28;19925;-69
2023/03/31 07:07:38;;;;;;;;;;;10.70;99.90;;;;;;8389108;28;19932;-69
2023/03/31 07:11:40;;;;;;;;;;;10.70;99.90;;;;;;8395200;28;19932;-70
2023/03/31 07:15:42;;;;;;;;;;;10.70;99.90;;;;;;8402920;28;20029;-68
2023/03/31 07:19:46;;;;;;;;;;;10.70;99.90;;;;;;8370154;28;20030;-70
2023/03/31 07:23:48;;;;;;;;;;;10.70;99.90;;;;;;8390566;28;19925;-69
2023/03/31 07:27:50;;;;;;;;;;;10.60;99.90;;;;;;8394484;28;19963;-69
2023/03/31 07:31:51;;;;;;;;;;;10.60;99.90;;;;;;8381430;28;20019;-69
2023/03/31 07:35:53;;;;;;;;;;;10.60;99.90;;;;;;8392987;28;19929;-69
2023/03/31 07:40:14;;;;;;;;;;;10.70;99.90;;;;;;8390456;28;19929;-69
2023/03/31 07:44:16;;;;;;;;;;;10.70;99.90;;;;;;8375637;28;20019;-69
2023/03/31 07:48:18;;;;;;;;;;;10.70;99.90;;;;;;8385550;28;19957;-69
2023/03/31 07:52:19;;;;;;;;;;;10.70;99.90;;;;;;8375048;28;19925;-70
2023/03/31 07:56:23;;;;;;;;;;;10.70;99.90;;;;;;8390794;28;19967;-69
2023/03/31 08:00:24;;;;;;;;;;;10.70;99.90;;;;;;8397101;28;20394;-70
2023/03/31 08:04:26;;;;;;;;;;;10.70;99.90;;;;;;8392889;28;19936;-70
2023/03/31 08:08:27;;;;;;;;;;;10.70;99.90;;;;;;8400969;28;19925;-70
2023/03/31 08:12:29;;;;;;;;;;;10.70;99.90;;;;;;8399524;28;19932;-69
2023/03/31 08:16:31;;;;;;;;;;;10.80;99.90;;;;;;8382963;28;19930;-69
2023/03/31 08:20:33;;;;;;;;;;;10.80;99.90;;;;;;8398698;28;19989;-69
2023/03/31 08:24:34;;;;;;;;;;;10.80;99.90;;;;;;8387140;28;19925;-69
2023/03/31 08:28:36;;;;;;;;;;;11.00;99.90;;;;;;8397249;28;20376;-68
2023/03/31 08:32:38;;;;;;;;;;;11.00;99.90;;;;;;8372851;28;19924;-69
2023/03/31 08:36:40;;;;;;;;;;;11.10;99.90;;;;;;8384355;28;19925;-69
2023/03/31 08:40:41;;;;;;;;;;;11.20;99.90;;;;;;8390088;28;19930;-69
2023/03/31 08:44:43;;;;;;;;;;;11.30;99.90;;;;;;8371661;28;19928;-69
2023/03/31 08:48:53;;;;;;;;;;;11.30;99.90;;;;;;8412764;28;20392;-69
2023/03/31 08:53:03;;;;;;;;;;;11.40;99.90;;;;;;8394970;28;19932;-69
2023/03/31 08:57:10;;;;;;;;;;;11.40;99.90;;;;;;8381062;28;19928;-69
2023/03/31 09:01:30;;;;;;;;;;;11.40;99.90;;;;;;8367544;28;19954;-70
2023/03/31 09:05:53;;;;;;;;;;;11.50;99.90;;;;;;8391707;28;19962;-69
2023/03/31 09:10:15;;;;;;;;;;;11.60;99.90;;;;;;8388031;28;19929;-69
2023/03/31 09:14:25;;;;;;;;;;;11.70;99.90;;;;;;8378975;28;19936;-68
2023/03/31 09:18:27;;;;;;;;;;;11.80;99.90;;;;;;8385852;28;19929;-68
2023/03/31 09:22:33;;;;;;;;;;;12.00;99.90;;;;;;8401079;28;20372;-68
2023/03/31 09:26:34;;;;;;;;;;;12.20;99.90;;;;;;8390802;28;19932;-69
2023/03/31 09:30:37;;;;;;;;;;;12.40;99.90;;;;;;8391306;28;19972;-69
2023/03/31 09:34:38;;;;;;;;;;;12.50;99.90;;;;;;8370552;28;20019;-69
2023/03/31 09:38:41;;;;;;;;;;;12.50;99.90;;;;;;8391134;28;20368;-69
2023/03/31 09:42:43;;;;;;;;;;;12.40;99.90;;;;;;8394030;28;19928;-68
2023/03/31 09:46:45;;;;;;;;;;;12.40;99.90;;;;;;8396648;28;20002;-69
2023/03/31 09:50:58;;;;;;;;;;;12.40;99.90;;;;;;8403505;28;20273;-69
2023/03/31 09:55:01;;;;;;;;;;;12.50;99.90;;;;;;8366967;28;19928;-69
2023/03/31 09:59:03;;;;;;;;;;;12.50;99.90;;;;;;8393781;28;20294;-69
2023/03/31 10:03:07;;;;;;;;;;;12.70;99.90;;;;;;8371322;28;19934;-69
2023/03/31 10:07:10;;;;;;;;;;;12.80;99.90;;;;;;8387476;28;19931;-69
2023/03/31 10:11:12;;;;;;;;;;;13.00;99.90;;;;;;8393671;28;20024;-69
2023/03/31 10:15:17;;;;;;;;;;;13.20;99.90;;;;;;8374645;28;19934;-69
2023/03/31 10:19:24;;;;;;;;;;;13.30;99.90;;;;;;8397085;28;19924;-69
2023/03/31 10:23:28;;;;;;;;;;;13.30;99.90;;;;;;8381758;28;19935;-69
2023/03/31 10:27:30;;;;;;;;;;;13.30;99.90;;;;;;8396920;28;19931;-69
2023/03/31 10:31:36;;;;;;;;;;;13.40;99.90;;;;;;8382164;28;19924;-69
2023/03/31 10:35:38;;;;;;;;;;;13.50;99.90;;;;;;8366682;28;19925;-69
2023/03/31 10:39:41;;;;;;;;;;;13.40;99.90;;;;;;8383578;28;19951;-69
2023/03/31 10:43:53;;;;;;;;;;;13.40;99.90;;;;;;8364478;28;19929;-69
2023/03/31 10:47:56;;;;;;;;;;;13.40;99.90;;;;;;8332451;28;20023;-69
2023/03/31 10:51:58;;;;;;;;;;;13.30;99.90;;;;;;8346060;28;19924;-69
2023/03/31 10:56:18;;;;;;;;;;;13.30;99.90;;;;;;8340134;28;20392;-69
2023/03/31 11:00:27;;;;;;;;;;;13.20;99.90;;;;;;8348888;28;19924;-70
2023/03/31 11:04:29;;;;;;;;;;;13.00;99.90;;;;;;8384141;28;20288;-69
2023/03/31 11:08:40;;;;;;;;;;;12.90;99.90;;;;;;8359478;28;20406;-69
2023/03/31 11:12:50;;;;;;;;;;;12.80;99.90;;;;;;8356132;28;20293;-69
2023/03/31 11:16:59;;;;;;;;;;;12.80;99.90;;;;;;8360363;28;19929;-69
2023/03/31 11:21:16;;;;;;;;;;;12.90;99.90;;;;;;8351701;28;19929;-68
2023/03/31 11:25:28;;;;;;;;;;;12.90;99.90;;;;;;8393447;28;19975;-69
2023/03/31 11:29:43;;;;;;;;;;;12.90;99.90;;;;;;8353257;28;20019;-69
2023/03/31 11:33:53;;;;;;;;;;;13.00;99.90;;;;;;8372180;28;20289;-69
2023/03/31 11:38:16;;;;;;;;;;;13.10;99.90;;;;;;8397957;28;19929;-69
2023/03/31 11:42:24;;;;;;;;;;;12.90;99.90;;;;;;8372753;28;20328;-69
2023/03/31 11:46:46;;;;;;;;;;;12.50;99.90;;;;;;8368583;28;19964;-69
2023/03/31 11:50:48;;;;;;;;;;;12.20;99.90;;;;;;8342434;28;20287;-69
2023/03/31 11:54:58;;;;;;;;;;;12.00;99.90;;;;;;8362085;28;19968;-69
2023/03/31 11:59:04;;;;;;;;;;;11.90;99.90;;;;;;8357644;28;19956;-69
2023/03/31 12:03:20;;;;;;;;;;;11.80;99.90;;;;;;8355569;28;20129;-69
2023/03/31 12:07:29;;;;;;;;;;;11.70;99.90;;;;;;8359210;28;19932;-69
2023/03/31 12:11:31;;;;;;;;;;;11.70;99.90;;;;;;8359817;28;19925;-69
2023/03/31 12:15:36;;;;;;;;;;;11.60;99.90;;;;;;8370648;28;19931;-69
2023/03/31 12:19:45;;;;;;;;;;;11.60;99.90;;;;;;8355566;28;19971;-69
2023/03/31 12:23:46;;;;;;;;;;;11.70;99.90;;;;;;8358411;28;20272;-69
2023/03/31 12:27:50;;;;;;;;;;;11.70;99.90;;;;;;8366759;28;20384;-69
2023/03/31 12:31:53;;;;;;;;;;;11.70;99.90;;;;;;8386073;28;19929;-69
2023/03/31 12:36:14;;;;;;;;;;;11.70;99.90;;;;;;8365910;28;20368;-68
2023/03/31 12:40:29;;;;;;;;;;;11.60;99.90;;;;;;8372493;28;19931;-69
2023/03/31 12:44:50;;;;;;;;;;;11.50;99.90;;;;;;8367114;28;20023;-68
2023/03/31 12:49:07;;;;;;;;;;;11.60;99.90;;;;;;8360406;28;19935;-69
2023/03/31 12:53:09;;;;;;;;;;;11.70;99.90;;;;;;8352867;28;19936;-69
2023/03/31 12:57:14;;;;;;;;;;;11.80;99.90;;;;;;8361524;28;19982;-69
2023/03/31 13:01:22;;;;;;;;;;;11.90;99.90;;;;;;8355331;28;20634;-69
2023/03/31 13:05:36;;;;;;;;;;;12.00;99.90;;;;;;8347966;28;19936;-69
2023/03/31 13:09:40;;;;;;;;;;;12.00;99.90;;;;;;8356948;28;19928;-69
2023/03/31 13:13:52;;;;;;;;;;;12.00;99.90;;;;;;8358517;28;19933;-68
2023/03/31 13:18:02;;;;;;;;;;;11.90;99.90;;;;;;8342757;28;19928;-69
2023/03/31 13:22:04;;;;;;;;;;;11.90;99.90;;;;;;8359368;28;19982;-68
2023/03/31 13:26:26;;;;;;;;;;;11.80;99.90;;;;;;8358063;28;19932;-68
2023/03/31 13:30:42;;;;;;;;;;;11.80;99.90;;;;;;8355296;28;19925;-68
2023/03/31 13:34:54;;;;;;;;;;;11.90;99.90;;;;;;8356337;28;19964;-69
2023/03/31 13:38:56;;;;;;;;;;;11.90;99.90;;;;;;8357697;28;19932;-68
2023/03/31 13:43:26;;;;;;;;;;;11.90;99.90;;;;;;8353870;28;19972;-68
2023/03/31 13:47:36;;;;;;;;;;;11.80;99.90;;;;;;8353835;28;19947;-69
2023/03/31 13:51:56;;;;;;;;;;;11.70;99.90;;;;;;8349901;28;19925;-69
2023/03/31 13:56:16;;;;;;;;;;;11.70;99.90;;;;;;8358612;28;20300;-69
2023/03/31 14:00:29;;;;;;;;;;;11.60;99.90;;;;;;8357599;28;19929;-68
2023/03/31 14:04:40;;;;;;;;;;;11.50;99.90;;;;;;8356219;28;20403;-68
2023/03/31 14:08:51;;;;;;;;;;;11.40;99.90;;;;;;8367816;28;20299;-68
2023/03/31 14:13:03;;;;;;;;;;;11.40;99.90;;;;;;8361929;28;19925;-68
2023/03/31 14:17:05;;;;;;;;;;;11.40;99.90;;;;;;8349789;28;19939;-68
2023/03/31 14:21:07;;;;;;;;;;;11.50;99.90;;;;;;8365409;28;20303;-68
2023/03/31 14:25:27;;;;;;;;;;;11.50;99.90;;;;;;8373432;28;19924;-68
2023/03/31 14:29:35;;;;;;;;;;;11.50;99.90;;;;;;8353623;28;19979;-69
2023/03/31 14:33:36;;;;;;;;;;;11.50;99.90;;;;;;8336744;28;19956;-69
2023/03/31 14:37:38;;;;;;;;;;;11.50;99.90;;;;;;8352003;28;20448;-69
2023/03/31 14:41:43;;;;;;;;;;;11.30;99.90;;;;;;8341855;28;19936;-69
2023/03/31 14:45:45;;;;;;;;;;;11.30;99.90;;;;;;8357712;28;19933;-68
2023/03/31 14:49:47;;;;;;;;;;;11.30;99.90;;;;;;8356298;28;20023;-68
2023/03/31 14:53:54;;;;;;;;;;;11.40;99.90;;;;;;8358781;28;20391;-69
2023/03/31 14:57:59;;;;;;;;;;;11.50;99.90;;;;;;8356242;28;19933;-69
2023/03/31 15:02:01;;;;;;;;;;;11.60;99.90;;;;;;8359089;28;19925;-69
2023/03/31 15:06:03;;;;;;;;;;;11.60;99.90;;;;;;8358403;28;19968;-69
2023/03/31 15:10:05;;;;;;;;;;;11.60;99.90;;;;;;8361699;28;20383;-69
2023/03/31 15:14:08;;;;;;;;;;;11.50;99.90;;;;;;8361713;28;19956;-69
2023/03/31 15:18:11;;;;;;;;;;;11.50;99.90;;;;;;8361379;28;19932;-70
2023/03/31 15:22:13;;;;;;;;;;;11.40;99.90;;;;;;8354632;28;19924;-69
2023/03/31 15:26:17;;;;;;;;;;;11.40;99.90;;;;;;8360231;28;19928;-69
2023/03/31 15:30:24;;;;;;;;;;;11.40;99.90;;;;;;8378407;28;20015;-69
2023/03/31 15:34:31;;;;;;;;;;;11.30;99.90;;;;;;8357608;28;20332;-69
2023/03/31 15:38:33;;;;;;;;;;;11.30;99.90;;;;;;8362774;28;19960;-69
2023/03/31 15:42:35;;;;;;;;;;;11.20;99.90;;;;;;8357378;28;19935;-69
2023/03/31 15:46:37;;;;;;;;;;;11.20;99.90;;;;;;8366884;28;19925;-69
2023/03/31 15:50:39;;;;;;;;;;;11.20;99.90;;;;;;8373207;28;20006;-69
2023/03/31 15:54:40;;;;;;;;;;;11.20;99.90;;;;;;8357838;28;19928;-69
2023/03/31 15:58:45;;;;;;;;;;;11.10;99.90;;;;;;8364524;28;19939;-69
2023/03/31 16:02:46;;;;;;;;;;;11.00;99.90;;;;;;8375262;28;20269;-69
2023/03/31 16:06:57;;;;;;;;;;;11.00;99.90;;;;;;8375453;28;19994;-69
2023/03/31 16:11:02;;;;;;;;;;;10.90;99.90;;;;;;8359140;28;19975;-69
2023/03/31 16:15:08;;;;;;;;;;;10.90;99.90;;;;;;8356575;28;19943;-69
2023/03/31 16:19:10;;;;;;;;;;;10.90;99.90;;;;;;8363619;28;20004;-69
2023/03/31 16:23:14;;;;;;;;;;;10.80;99.90;;;;;;8347885;28;20362;-69
2023/03/31 16:27:15;;;;;;;;;;;10.80;99.90;;;;;;8355605;28;19924;-69
2023/03/31 16:31:33;;;;;;;;;;;10.70;99.90;;;;;;8359047;28;19931;-70
2023/03/31 16:35:36;;;;;;;;;;;10.70;99.90;;;;;;8357843;28;19975;-69
2023/03/31 16:39:37;;;;;;;;;;;10.70;99.90;;;;;;8357327;28;19960;-69
2023/03/31 16:43:39;;;;;;;;;;;10.70;99.90;;;;;;8359832;28;19931;-69
2023/03/31 16:47:40;;;;;;;;;;;10.70;99.90;;;;;;8361370;28;19954;-69
2023/03/31 16:51:45;;;;;;;;;;;10.80;99.90;;;;;;8363872;28;19929;-69
2023/03/31 16:55:47;;;;;;;;;;;10.80;99.90;;;;;;8368639;28;19928;-69
2023/03/31 16:59:49;;;;;;;;;;;10.80;99.90;;;;;;8349401;28;19929;-69
2023/03/31 17:03:51;;;;;;;;;;;10.80;99.90;;;;;;8386774;28;19925;-70
2023/03/31 17:07:53;;;;;;;;;;;10.70;99.90;;;;;;8355124;28;19929;-69
2023/03/31 17:11:55;;;;;;;;;;;10.60;99.90;;;;;;8345647;28;19925;-69
2023/03/31 17:15:57;;;;;;;;;;;10.60;99.90;;;;;;8357177;28;19973;-69
2023/03/31 17:20:13;;;;;;;;;;;10.60;99.90;;;;;;8355020;28;19975;-69
2023/03/31 17:24:15;;;;;;;;;;;10.50;99.90;;;;;;8354316;28;19931;-69
2023/03/31 17:28:17;;;;;;;;;;;10.60;99.90;;;;;;8333369;28;20771;-69
2023/03/31 17:32:19;;;;;;;;;;;10.50;99.90;;;;;;8348970;28;20035;-70
2023/03/31 17:36:21;;;;;;;;;;;10.60;99.90;;;;;;8351918;28;19931;-69
2023/03/31 17:40:23;;;;;;;;;;;10.60;99.90;;;;;;8351685;28;19932;-69
2023/03/31 17:44:26;;;;;;;;;;;10.60;99.90;;;;;;8354753;28;19978;-70
2023/03/31 17:48:27;;;;;;;;;;;10.50;99.90;;;;;;8367161;28;19933;-69
2023/03/31 17:52:29;;;;;;;;;;;10.50;99.90;;;;;;8355353;28;19936;-69
2023/03/31 17:56:31;;;;;;;;;;;10.50;99.90;;;;;;8352206;28;19928;-69
2023/03/31 18:00:32;;;;;;;;;;;10.50;99.90;;;;;;8367288;28;20291;-69
2023/03/31 18:04:35;;;;;;;;;;;10.40;99.90;;;;;;8351973;28;19936;-68
2023/03/31 18:08:37;;;;;;;;;;;10.40;99.90;;;;;;8353994;28;20342;-69
2023/03/31 18:12:40;;;;;;;;;;;10.40;99.90;;;;;;8354029;28;20261;-68
2023/03/31 18:16:41;;;;;;;;;;;10.40;99.90;;;;;;8352648;28;19929;-69
2023/03/31 18:20:44;;;;;;;;;;;10.40;99.90;;;;;;8359782;28;19971;-68
2023/03/31 18:24:46;;;;;;;;;;;10.40;99.90;;;;;;8352736;28;19933;-68
2023/03/31 18:28:47;;;;;;;;;;;10.30;99.90;;;;;;8351954;28;20037;-69
2023/03/31 18:32:49;;;;;;;;;;;10.40;99.90;;;;;;8367653;28;20027;-69
2023/03/31 18:36:51;;;;;;;;;;;10.30;99.90;;;;;;8349347;28;19939;-69
2023/03/31 18:40:53;;;;;;;;;;;10.30;99.90;;;;;;8365507;28;19925;-68
2023/03/31 18:44:55;;;;;;;;;;;10.30;99.90;;;;;;8353542;28;19925;-69
2023/03/31 18:48:57;;;;;;;;;;;10.30;99.90;;;;;;8347649;28;20372;-69
2023/03/31 18:52:58;;;;;;;;;;;10.30;99.90;;;;;;8347617;28;20258;-68
2023/03/31 18:57:00;;;;;;;;;;;10.30;99.90;;;;;;8352213;28;19925;-69
2023/03/31 19:01:02;;;;;;;;;;;10.30;99.90;;;;;;8350135;28;20011;-68
2023/03/31 19:05:04;;;;;;;;;;;10.30;99.90;;;;;;8366599;28;20365;-69
2023/03/31 19:09:06;;;;;;;;;;;10.30;99.90;;;;;;8354086;28;19929;-69
2023/03/31 19:13:12;;;;;;;;;;;10.30;99.90;;;;;;8351546;28;19933;-69
2023/03/31 19:17:16;;;;;;;;;;;10.30;99.90;;;;;;8349545;28;19924;-69
2023/03/31 19:21:18;;;;;;;;;;;10.30;99.90;;;;;;8351278;28;19932;-69
2023/03/31 19:25:20;;;;;;;;;;;10.30;99.90;;;;;;8350633;28;19935;-68
2023/03/31 19:29:22;;;;;;;;;;;10.30;99.90;;;;;;8353723;28;20028;-68
2023/03/31 19:33:25;;;;;;;;;;;10.30;99.90;;;;;;8367123;28;19925;-69
2023/03/31 19:37:27;;;;;;;;;;;10.30;99.90;;;;;;8364392;28;19932;-69
2023/03/31 19:41:29;;;;;;;;;;;10.30;99.90;;;;;;8346381;28;20035;-69
2023/03/31 19:45:30;;;;;;;;;;;10.20;99.90;;;;;;8349581;28;19933;-68
2023/03/31 19:49:32;;;;;;;;;;;10.20;99.90;;;;;;8349327;28;19983;-69
2023/03/31 19:53:37;;;;;;;;;;;10.20;99.90;;;;;;8355853;28;20017;-69
2023/03/31 19:57:40;;;;;;;;;;;10.30;99.90;;;;;;8340787;28;20176;-69
2023/03/31 20:01:41;;;;;;;;;;;10.20;99.90;;;;;;8369912;28;20016;-69
2023/03/31 20:05:43;;;;;;;;;;;10.30;99.90;;;;;;8356645;28;19925;-69
2023/03/31 20:09:44;;;;;;;;;;;10.30;99.90;;;;;;8376446;28;20642;-69
2023/03/31 20:13:46;;;;;;;;;;;10.20;99.90;;;;;;8354535;28;19929;-69
2023/03/31 20:17:48;;;;;;;;;;;10.20;99.90;;;;;;8358291;28;19974;-68
2023/03/31 20:21:53;;;;;;;;;;;10.20;99.90;;;;;;8353441;28;20450;-69
2023/03/31 20:25:54;;;;;;;;;;;10.20;99.90;;;;;;8370596;28;19933;-69
2023/03/31 20:29:56;;;;;;;;;;;10.20;99.90;;;;;;8353718;28;19956;-69
2023/03/31 20:33:58;;;;;;;;;;;10.10;99.90;;;;;;8353070;28;19928;-69
2023/03/31 20:37:59;;;;;;;;;;;10.10;99.90;;;;;;8349926;28;19935;-69
2023/03/31 20:42:01;;;;;;;;;;;10.10;99.90;;;;;;8371994;28;19925;-69
2023/03/31 20:46:04;;;;;;;;;;;10.10;99.90;;;;;;8350280;28;20300;-68
2023/03/31 20:50:06;;;;;;;;;;;10.10;99.90;;;;;;8352433;28;20364;-68
2023/03/31 20:54:07;;;;;;;;;;;10.10;99.90;;;;;;8351619;28;20296;-68
2023/03/31 20:58:09;;;;;;;;;;;10.10;99.90;;;;;;8355531;28;19933;-69
2023/03/31 21:02:11;;;;;;;;;;;10.10;99.90;;;;;;8359338;28;19972;-68
2023/03/31 21:06:14;;;;;;;;;;;10.00;99.90;;;;;;8370817;28;19924;-69
2023/03/31 21:10:16;;;;;;;;;;;10.00;99.90;;;;;;8382747;28;20011;-68
2023/03/31 21:14:17;;;;;;;;;;;10.10;99.90;;;;;;8348155;28;20288;-68
2023/03/31 21:18:19;;;;;;;;;;;10.00;99.90;;;;;;8369755;28;19925;-68
2023/03/31 21:22:20;;;;;;;;;;;10.00;99.90;;;;;;8370858;28;19929;-69
2023/03/31 21:26:23;;;;;;;;;;;10.00;99.90;;;;;;8372956;28;19983;-68
2023/03/31 21:30:25;;;;;;;;;;;10.10;99.90;;;;;;8382689;28;19975;-68
2023/03/31 21:34:27;;;;;;;;;;;10.00;99.90;;;;;;8368753;28;19928;-68
2023/03/31 21:38:28;;;;;;;;;;;10.00;99.90;;;;;;8364383;28;19934;-68
2023/03/31 21:42:33;;;;;;;;;;;10.00;99.90;;;;;;8379184;28;19932;-68
2023/03/31 21:46:34;;;;;;;;;;;10.00;99.90;;;;;;8367107;28;19929;-68
2023/03/31 21:50:38;;;;;;;;;;;10.00;99.90;;;;;;8365172;28;19929;-68
2023/03/31 21:54:40;;;;;;;;;;;10.00;99.90;;;;;;8357560;28;19925;-67
2023/03/31 21:58:42;;;;;;;;;;;10.00;99.90;;;;;;8359628;28;19932;-68
2023/03/31 22:02:43;;;;;;;;;;;10.00;99.90;;;;;;8366344;28;20348;-68
2023/03/31 22:06:45;;;;;;;;;;;10.00;99.90;;;;;;8369905;28;19929;-67
2023/03/31 22:10:48;;;;;;;;;;;9.90;99.90;;;;;;8365367;28;19929;-68
2023/03/31 22:14:49;;;;;;;;;;;9.90;99.90;;;;;;8374368;28;20321;-67
2023/03/31 22:18:53;;;;;;;;;;;9.90;99.90;;;;;;8374844;28;19924;-68
2023/03/31 22:22:56;;;;;;;;;;;9.90;99.90;;;;;;8373698;28;20403;-67
2023/03/31 22:26:58;;;;;;;;;;;9.90;99.90;;;;;;8371935;28;20003;-67
2023/03/31 22:31:00;;;;;;;;;;;9.90;99.90;;;;;;8366676;28;19924;-68
2023/03/31 22:35:01;;;;;;;;;;;9.90;99.90;;;;;;8366229;28;19931;-67
2023/03/31 22:39:03;;;;;;;;;;;9.90;99.90;;;;;;8359553;28;20372;-68
2023/03/31 22:43:04;;;;;;;;;;;9.90;99.90;;;;;;8394738;28;19924;-67
2023/03/31 22:47:06;;;;;;;;;;;9.90;99.90;;;;;;8370190;28;20011;-67
2023/03/31 22:51:10;;;;;;;;;;;9.90;99.90;;;;;;8375457;28;20330;-68
2023/03/31 22:55:12;;;;;;;;;;;9.90;99.90;;;;;;8359307;28;19932;-68
2023/03/31 22:59:14;;;;;;;;;;;9.90;99.90;;;;;;8361074;28;19976;-68
2023/03/31 23:03:16;;;;;;;;;;;9.90;99.90;;;;;;8374675;28;19968;-68
2023/03/31 23:07:20;;;;;;;;;;;9.90;99.90;;;;;;8377662;28;20402;-68
2023/03/31 23:11:23;;;;;;;;;;;9.90;99.90;;;;;;8370529;28;20384;-67
2023/03/31 23:15:24;;;;;;;;;;;9.90;99.90;;;;;;8377076;28;19924;-67
2023/03/31 23:19:26;;;;;;;;;;;10.00;99.90;;;;;;8359801;28;19929;-67
2023/03/31 23:23:28;;;;;;;;;;;10.00;99.90;;;;;;8364637;28;20386;-67
2023/03/31 23:27:29;;;;;;;;;;;10.00;99.90;;;;;;8375348;28;20552;-68
2023/03/31 23:31:31;;;;;;;;;;;10.00;99.90;;;;;;8370626;28;19939;-68
2023/03/31 23:35:33;;;;;;;;;;;10.00;99.90;;;;;;8377430;28;19978;-67
2023/03/31 23:39:37;;;;;;;;;;;10.10;99.90;;;;;;8383291;28;19955;-68
2023/03/31 23:43:39;;;;;;;;;;;10.10;99.90;;;;;;8366623;28;19925;-68
2023/03/31 23:47:41;;;;;;;;;;;10.00;99.90;;;;;;8381996;28;19943;-67
2023/03/31 23:51:43;;;;;;;;;;;10.10;99.90;;;;;;8371105;28;19964;-67
2023/03/31 23:55:51;;;;;;;;;;;10.10;99.90;;;;;;8365361;28;19940;-68
2023/03/31 23:59:53;;;;;;;;;;;10.10;99.90;;;;;;8376848;28;20388;-67
